This is the latest recevied weather packets stored in our database for station/object SP4MAZ-13. If no packets are shown the sender has not sent any weather packets the latest 10 day(s).
| Time | Temp. | Humidity | Pressure | Rain* | Wind** | Luminosity | Snow |
|---|---|---|---|---|---|---|---|
| 1778050757 | 13.89° C | 71% | 2147.4 hPa | - | - | - | - |
| 1778050452 | 13.33° C | 72% | 2147.4 hPa | - | - | - | - |
| 1778050149 | 13.33° C | 72% | 2147.4 hPa | - | - | - | - |
| 1778049845 | 13.33° C | 73% | 2147.4 hPa | - | - | - | - |
| 1778049543 | 12.78° C | 76% | 2147.4 hPa | - | - | - | - |
| 1778049239 | 12.78° C | 75% | 2147.4 hPa | - | - | - | - |
| 1778048938 | 13.89° C | 68% | 2147.4 hPa | - | - | - | - |
| 1778048634 | 13.89° C | 70% | 2147.4 hPa | - | - | - | - |
| 1778048024 | 12.78° C | 76% | 2147.4 hPa | - | - | - | - |
| 1778047720 | 12.22° C | 80% | 2147.4 hPa | - | - | - | - |
| 1778047416 | 12.78° C | 75% | 2147.4 hPa | - | - | - | - |
| 1778047115 | 12.78° C | 79% | 2147.4 hPa | - | - | - | - |
| 1778046813 | 12.22° C | 80% | 2147.4 hPa | - | - | - | - |
| 1778046510 | 12.22° C | 79% | 2147.4 hPa | - | - | - | - |
| 1778046208 | 12.22° C | 81% | 2147.4 hPa | - | - | - | - |
| 1778045904 | 12.22° C | 88% | 2147.4 hPa | - | - | - | - |
| 1778045601 | 11.67° C | 90% | 2147.4 hPa | - | - | - | - |
| 1778045300 | 11.67° C | 90% | 2147.4 hPa | - | - | - | - |
| 1778044997 | 11.67° C | 91% | 2147.4 hPa | - | - | - | - |
| 1778044694 | 11.67° C | 94% | 2147.4 hPa | - | - | - | - |
| 1778044390 | 11.67° C | 92% | 2147.4 hPa | - | - | - | - |
| 1778044089 | 11.11° C | 94% | 2147.4 hPa | - | - | - | - |
| 1778043785 | 11.67° C | 93% | 2147.4 hPa | - | - | - | - |
| 1778043484 | 11.11° C | 95% | 2147.4 hPa | - | - | - | - |
| 1778043180 | 11.11° C | 97% | 2147.4 hPa | - | - | - | - |
* Rain since midnight (hover to see other rain measurements)
** Current wind speed in m/s (hover to see current wind gust speed)